Flight Number: EUR2033 Duration: 0:45
Departure: Munich Int'l (EDDM) at 06:45 Distance: 192 Nm
Arrival: Vienna Schwechat (LOWW) at 07:30 Equipment: B737

Weather Information
Munchen, Germany (EDDM) 48-21N 011-47E May 23, 2018 - 07:50 PM EDT / 2018.05.23 2350 UTC
Wind: from the W (270 degrees) at 3 MPH (3 KT):0
Visibility: greater than 7 mile(s):0
Sky conditions: mostly cloudy Weather: light rain showers; Cumulonimbus clouds observed Temperature: 59 F (15 C) Dew Point: 55 F (13 C) Relative Humidity: 87% Pressure (altimeter): 30.06 in. Hg (1018 hPa)
ob: EDDM 232350Z 27003KT 9999 -SHRA FEW016 SCT030CB BKN100 15/13 Q1018 TEMPO SHRA cycle: 0
Sunrise: 03:26 Sunset: 18:53 (UTC)

Wien / Schwechat-Flughafen, Austria (LOWW) 48-07N 016-34E 190M May 23, 2018 - 07:50 PM EDT / 2018.05.23 2350 UTC
Wind: from the NNE (020 degrees) at 3 MPH (3 KT):0
Visibility: greater than 7 mile(s):0
Sky conditions: partly cloudy Weather: mist Temperature: 60 F (16 C) Dew Point: 60 F (16 C) Relative Humidity: 100% Pressure (altimeter): 30.06 in. Hg (1018 hPa)
ob: LOWW 232350Z 02003KT 9999 4000E BR FEW110 SCT120 16/16 Q1018 NOSIG cycle: 0
Sunrise: 03:07 Sunset: 18:33 (UTC)

TAF:2018/05/23 21:21 TAF LOWW 232015Z 2321/2503 VRB02KT CAVOK TX24/2413Z TN16/2403Z PROB30 TEMPO 2401/2407 5000 SHRA BKN012 FEW030CB BECMG 2409/2411 06005KT 9999 SCT030 FEW030CB TEMPO 2412/2418 VRB10G20KT 5000 TSRA BKN020 SCT030CB PROB30 TEMPO 2423/2503 35007KT 2000 SHRA FEW008 BKN012 FEW020CB

Previous Pireps for this route
Date Aircraft Flight time Fuel used Landing rate On time
2012-09-27B7370.595900-312No
2012-10-23B73701.1010845-584No
2012-12-29B737.4343000No
2013-03-26B7371.1100000No
2013-04-23B7372120000No
2013-05-28B7370.5350000No
2013-07-07B73701.128013-665No
2013-07-09B73700.545867-668No
2013-07-11B73700.465508-398No
2013-07-23B73700.505000-350No
2013-10-26B73701.178464-134No
2014-03-23B73701.098745-348Yes
2014-06-25B7371.2032540No
2014-08-23B73701.056921-175Yes
2014-12-08B73701.0052030Charter
2015-01-12B73701.155483-96Yes
2015-01-13B73701.175392-243Yes
2015-01-27B73701.146651-138Yes
2015-03-12B73700.524863-168Yes
2015-03-28B73700.413913-98Yes
2015-04-06B73700.442904-152Yes
2015-07-12B7370.4651380Yes
2015-07-15B7370.5053240Yes
2015-08-17B77701.4917819-556Charter
2015-12-18B73701.045799-361Charter
2016-07-23B7371.0410312-184Yes
2018-05-22B7371.00-28140Yes
(pireps marked green are flown by you)

Route map